Time;durP1;ratioP1;P1;durP2;ratioP2;P2;SDS_P1;SDS_P2;PMS_P1;PMS_P2;Temp;Humidity;BMP_temperature;BMP_pressure;BME280_temperature;BME280_humidity;BME280_pressure;Samples;Min_cycle;Max_cycle;Signal;HPM_P1;HPM_P2
2024/02/10 00:01:11;;;;;;;23.05;4.25;;;;;;;;;;4857102;29;20061;-84
2024/02/10 00:03:42;;;;;;;17.65;4.72;;;;;;;;;;4827484;29;20132;-83
2024/02/10 00:06:15;;;;;;;17.45;4.63;;;;;;;;;;4833380;29;20062;-84
2024/02/10 00:08:45;;;;;;;14.57;4.75;;;;;;;;;;4834503;29;20053;-83
2024/02/10 00:11:16;;;;;;;9.55;4.55;;;;;;;;;;4856926;29;20061;-83
2024/02/10 00:13:49;;;;;;;10.13;4.18;;;;;;;;;;4834498;29;20057;-83
2024/02/10 00:16:20;;;;;;;12.63;4.00;;;;;;;;;;4840679;29;20042;-81
2024/02/10 00:18:51;;;;;;;10.48;4.13;;;;;;;;;;4834517;29;20056;-83
2024/02/10 00:21:21;;;;;;;13.63;4.45;;;;;;;;;;4840712;29;20053;-84
2024/02/10 00:23:51;;;;;;;9.25;3.60;;;;;;;;;;4829686;29;20060;-82
2024/02/10 00:26:22;;;;;;;15.75;4.32;;;;;;;;;;4833491;29;20065;-83
2024/02/10 00:28:58;;;;;;;20.27;4.88;;;;;;;;;;4843151;29;20050;-84
2024/02/10 00:31:29;;;;;;;14.38;4.28;;;;;;;;;;4833876;29;20058;-83
2024/02/10 00:34:00;;;;;;;13.48;4.72;;;;;;;;;;4841568;29;20065;-82
2024/02/10 00:36:30;;;;;;;10.27;4.22;;;;;;;;;;4837769;29;20061;-81
2024/02/10 00:39:00;;;;;;;11.95;4.38;;;;;;;;;;4842128;29;20053;-82
2024/02/10 00:41:30;;;;;;;11.63;4.32;;;;;;;;;;4843691;29;20065;-81
2024/02/10 00:44:02;;;;;;;9.20;4.85;;;;;;;;;;4827089;29;20042;-83
2024/02/10 00:46:32;;;;;;;15.82;4.82;;;;;;;;;;4842622;29;20049;-83
2024/02/10 00:49:03;;;;;;;10.60;4.50;;;;;;;;;;4856549;29;20054;-83
2024/02/10 00:51:34;;;;;;;10.43;4.35;;;;;;;;;;4856669;29;20077;-82
2024/02/10 00:54:04;;;;;;;13.45;5.05;;;;;;;;;;4856945;29;20061;-83
2024/02/10 00:56:36;;;;;;;14.55;4.55;;;;;;;;;;4827606;29;20058;-84
2024/02/10 00:59:09;;;;;;;15.55;4.80;;;;;;;;;;4843149;29;20053;-85
2024/02/10 01:01:39;;;;;;;9.95;4.40;;;;;;;;;;4842500;29;20053;-84
2024/02/10 01:04:12;;;;;;;15.45;4.40;;;;;;;;;;4843019;29;20393;-84
2024/02/10 01:06:44;;;;;;;19.50;5.47;;;;;;;;;;4856086;29;20054;-83
2024/02/10 01:09:15;;;;;;;12.15;4.65;;;;;;;;;;4842807;29;20046;-83
2024/02/10 01:11:46;;;;;;;16.15;4.65;;;;;;;;;;4826500;29;20050;-82
2024/02/10 01:14:16;;;;;;;24.40;4.60;;;;;;;;;;4825901;29;20413;-83
2024/02/10 01:16:46;;;;;;;27.52;4.70;;;;;;;;;;4824739;29;20433;-84
2024/02/10 01:19:19;;;;;;;17.45;5.07;;;;;;;;;;4842582;29;20041;-82
2024/02/10 01:21:50;;;;;;;12.57;4.63;;;;;;;;;;4839889;29;20046;-84
2024/02/10 01:24:27;;;;;;;15.90;4.70;;;;;;;;;;4841008;29;20042;-84
2024/02/10 01:26:57;;;;;;;16.02;4.97;;;;;;;;;;4859220;29;20053;-83
2024/02/10 01:29:27;;;;;;;9.98;4.85;;;;;;;;;;4843724;29;20053;-82
2024/02/10 01:31:59;;;;;;;15.32;5.00;;;;;;;;;;4860871;29;20049;-83
2024/02/10 01:34:32;;;;;;;;;;;;;;;;;;4861086;29;20516;-84
2024/02/10 01:37:03;;;;;;;14.15;4.45;;;;;;;;;;4874210;29;19924;-82
2024/02/10 01:39:33;;;;;;;20.10;4.32;;;;;;;;;;4860491;29;20053;-84
2024/02/10 01:42:04;;;;;;;19.95;4.88;;;;;;;;;;4843401;29;20507;-82
2024/02/10 01:44:34;;;;;;;11.77;4.10;;;;;;;;;;4860866;29;20057;-84
2024/02/10 01:47:04;;;;;;;12.40;4.38;;;;;;;;;;4860768;29;20041;-85
2024/02/10 01:49:34;;;;;;;20.75;5.05;;;;;;;;;;4860243;29;20058;-83
2024/02/10 01:52:06;;;;;;;7.25;3.88;;;;;;;;;;4860580;29;20049;-83
2024/02/10 01:54:40;;;;;;;10.20;4.13;;;;;;;;;;4860585;29;20057;-85
2024/02/10 01:57:12;;;;;;;14.65;5.00;;;;;;;;;;4874439;29;20499;-83
2024/02/10 01:59:44;;;;;;;9.63;4.45;;;;;;;;;;4859920;29;20057;-84
2024/02/10 02:02:15;;;;;;;;;;;;;;;;;;4860625;29;20052;-83
2024/02/10 02:04:47;;;;;;;11.88;4.28;;;;;;;;;;4873859;29;19939;-81
2024/02/10 02:07:17;;;;;;;10.02;4.45;;;;;;;;;;4860437;29;20053;-82
2024/02/10 02:09:47;;;;;;;14.15;4.47;;;;;;;;;;4843614;29;20132;-83
2024/02/10 02:12:18;;;;;;;11.20;4.63;;;;;;;;;;4843495;29;20401;-83
2024/02/10 02:14:50;;;;;;;12.63;4.47;;;;;;;;;;4860148;29;20053;-83
2024/02/10 02:17:20;;;;;;;11.38;4.30;;;;;;;;;;4844074;29;20057;-83
2024/02/10 02:19:51;;;;;;;13.25;5.15;;;;;;;;;;4860703;29;20064;-83
2024/02/10 02:22:24;;;;;;;10.23;4.72;;;;;;;;;;4874736;29;20068;-85
2024/02/10 02:24:56;;;;;;;14.65;4.53;;;;;;;;;;4874045;29;20069;-86
2024/02/10 02:27:26;;;;;;;12.68;4.40;;;;;;;;;;4844121;29;20062;-84
2024/02/10 02:29:56;;;;;;;18.33;4.60;;;;;;;;;;4865954;29;20033;-85
2024/02/10 02:32:34;;;;;;;12.00;4.63;;;;;;;;;;4880725;29;20419;-84
2024/02/10 02:35:09;;;;;;;26.15;5.80;;;;;;;;;;4847647;29;20515;-83
2024/02/10 02:37:41;;;;;;;11.30;4.30;;;;;;;;;;4846579;29;20160;-87
2024/02/10 02:40:13;;;;;;;;;;;;;;;;;;4834710;29;20042;-82
2024/02/10 02:42:43;;;;;;;10.18;4.20;;;;;;;;;;4841486;29;19924;-84
2024/02/10 02:45:14;;;;;;;10.15;4.65;;;;;;;;;;4846549;29;20050;-84
2024/02/10 02:47:44;;;;;;;15.13;4.90;;;;;;;;;;4829306;29;20429;-83
2024/02/10 02:50:16;;;;;;;7.78;4.15;;;;;;;;;;4844785;29;20038;-85
2024/02/10 02:52:46;;;;;;;11.50;4.05;;;;;;;;;;4825169;29;20054;-84
2024/02/10 02:55:18;;;;;;;11.20;4.53;;;;;;;;;;4841539;29;20050;-84
2024/02/10 02:57:48;;;;;;;13.48;4.60;;;;;;;;;;4824925;29;20054;-84
2024/02/10 03:00:19;;;;;;;11.77;4.85;;;;;;;;;;4841348;29;20046;-82
2024/02/10 03:02:51;;;;;;;13.75;4.97;;;;;;;;;;4811587;29;20077;-87
2024/02/10 03:05:22;;;;;;;15.07;4.88;;;;;;;;;;4839625;29;20054;-85
2024/02/10 03:07:53;;;;;;;13.73;4.88;;;;;;;;;;4841167;29;20536;-85
2024/02/10 03:10:23;;;;;;;12.35;5.18;;;;;;;;;;4842634;29;20056;-85
2024/02/10 03:12:53;;;;;;;11.45;4.88;;;;;;;;;;4842817;29;20058;-85
2024/02/10 03:15:24;;;;;;;11.60;4.80;;;;;;;;;;4828466;29;20058;-86
2024/02/10 03:17:55;;;;;;;10.90;4.60;;;;;;;;;;4828608;29;20042;-85
2024/02/10 03:20:28;;;;;;;11.35;4.82;;;;;;;;;;4845012;29;20042;-85
2024/02/10 03:23:01;;;;;;;13.18;5.22;;;;;;;;;;4858224;29;20058;-84
2024/02/10 03:25:32;;;;;;;10.30;5.15;;;;;;;;;;4827557;29;20058;-84
2024/02/10 03:28:03;;;;;;;10.48;5.10;;;;;;;;;;4858567;29;20493;-85
2024/02/10 03:30:33;;;;;;;11.27;4.50;;;;;;;;;;4843285;29;20054;-84
2024/02/10 03:33:04;;;;;;;9.70;5.20;;;;;;;;;;4843929;29;20417;-85
2024/02/10 03:35:34;;;;;;;9.75;5.18;;;;;;;;;;4844272;29;20393;-87
2024/02/10 03:38:04;;;;;;;15.35;4.93;;;;;;;;;;4843780;29;20056;-84
2024/02/10 03:40:34;;;;;;;8.95;4.57;;;;;;;;;;4827238;29;20054;-85
2024/02/10 03:43:04;;;;;;;10.20;4.93;;;;;;;;;;4857820;29;20062;-85
2024/02/10 03:45:37;;;;;;;13.27;4.68;;;;;;;;;;4844060;29;20050;-86
2024/02/10 03:48:07;;;;;;;12.15;5.43;;;;;;;;;;4826852;29;20081;-84
2024/02/10 03:50:38;;;;;;;10.30;5.43;;;;;;;;;;4843992;29;20050;-85
2024/02/10 03:53:08;;;;;;;12.82;5.18;;;;;;;;;;4844101;29;20066;-83
2024/02/10 03:55:38;;;;;;;15.48;5.32;;;;;;;;;;4827938;29;20081;-85
2024/02/10 03:58:11;;;;;;;13.57;5.45;;;;;;;;;;4857538;29;20062;-86
2024/02/10 04:00:43;;;;;;;17.23;5.75;;;;;;;;;;4843770;29;20523;-84
2024/02/10 04:03:14;;;;;;;10.38;4.85;;;;;;;;;;4844031;29;20050;-84
2024/02/10 04:05:46;;;;;;;17.08;5.43;;;;;;;;;;4843681;29;20042;-84
2024/02/10 04:08:19;;;;;;;11.80;5.13;;;;;;;;;;4827806;29;20053;-86
2024/02/10 04:10:49;;;;;;;10.82;5.20;;;;;;;;;;4827517;29;20050;-84
2024/02/10 04:13:20;;;;;;;14.50;4.63;;;;;;;;;;4827166;29;20056;-86
2024/02/10 04:15:50;;;;;;;12.80;4.97;;;;;;;;;;4843489;29;20058;-84
2024/02/10 04:18:19;;;;;;;12.77;5.10;;;;;;;;;;4826959;29;20046;-84
2024/02/10 04:20:51;;;;;;;9.85;5.18;;;;;;;;;;4843736;29;20390;-84
2024/02/10 04:23:29;;;;;;;9.95;5.13;;;;;;;;;;4842699;29;20530;-83
2024/02/10 04:25:59;;;;;;;;;;;;;;;;;;4825100;29;20053;-82
2024/02/10 04:28:29;;;;;;;12.27;5.10;;;;;;;;;;4843199;29;20402;-83
2024/02/10 04:30:59;;;;;;;8.77;4.63;;;;;;;;;;4843458;29;20054;-84
2024/02/10 04:33:30;;;;;;;12.10;5.05;;;;;;;;;;4827315;29;20062;-83
2024/02/10 04:36:01;;;;;;;11.45;5.00;;;;;;;;;;4827004;29;20053;-84
2024/02/10 04:38:31;;;;;;;10.25;5.13;;;;;;;;;;4842875;29;20061;-83
2024/02/10 04:41:04;;;;;;;9.23;4.70;;;;;;;;;;4843427;29;20049;-85
2024/02/10 04:43:36;;;;;;;14.25;5.38;;;;;;;;;;4826792;29;20112;-83
2024/02/10 04:46:06;;;;;;;10.48;4.65;;;;;;;;;;4826644;29;20050;-84
2024/02/10 04:48:36;;;;;;;11.43;5.07;;;;;;;;;;4826413;29;20065;-83
2024/02/10 04:51:06;;;;;;;10.30;5.18;;;;;;;;;;4826783;29;20069;-82
2024/02/10 04:53:36;;;;;;;10.43;4.78;;;;;;;;;;4843163;29;20178;-82
2024/02/10 04:56:07;;;;;;;14.02;4.85;;;;;;;;;;4826801;29;20504;-85
2024/02/10 04:58:37;;;;;;;12.43;5.88;;;;;;;;;;4826540;29;20057;-83
2024/02/10 05:01:10;;;;;;;10.13;5.38;;;;;;;;;;4826336;29;20417;-82
2024/02/10 05:03:40;;;;;;;9.45;4.65;;;;;;;;;;4843255;29;20053;-82
2024/02/10 05:06:11;;;;;;;12.48;5.60;;;;;;;;;;4842822;29;20516;-82
2024/02/10 05:08:41;;;;;;;12.20;6.30;;;;;;;;;;4826788;29;20069;-82
2024/02/10 05:11:12;;;;;;;16.88;5.50;;;;;;;;;;4826649;29;20046;-82
2024/02/10 05:13:42;;;;;;;18.17;6.20;;;;;;;;;;4841985;29;20053;-82
2024/02/10 05:16:15;;;;;;;16.23;5.95;;;;;;;;;;4842055;29;20049;-83
2024/02/10 05:18:46;;;;;;;11.95;5.70;;;;;;;;;;4827005;29;20501;-86
2024/02/10 05:21:22;;;;;;;14.25;5.75;;;;;;;;;;4826412;29;20053;-82
2024/02/10 05:23:54;;;;;;;15.50;6.03;;;;;;;;;;4842277;29;20382;-83
2024/02/10 05:26:36;;;;;;;12.52;5.68;;;;;;;;;;4841840;29;20057;-85
2024/02/10 05:29:14;;;;;;;15.13;6.15;;;;;;;;;;4842306;29;20061;-82
2024/02/10 05:31:47;;;;;;;15.45;5.82;;;;;;;;;;4842229;29;20050;-83
2024/02/10 05:34:19;;;;;;;12.68;6.72;;;;;;;;;;4841195;29;20057;-83
2024/02/10 05:36:49;;;;;;;12.10;5.65;;;;;;;;;;4825879;29;20054;-82
2024/02/10 05:39:20;;;;;;;15.25;6.07;;;;;;;;;;4842538;29;20046;-83
2024/02/10 05:41:53;;;;;;;11.38;5.85;;;;;;;;;;4842350;29;20052;-82
2024/02/10 05:44:23;;;;;;;13.65;6.15;;;;;;;;;;4842085;29;20049;-83
2024/02/10 05:46:53;;;;;;;13.52;5.57;;;;;;;;;;4841997;29;20049;-82
2024/02/10 05:49:25;;;;;;;12.43;5.50;;;;;;;;;;4841483;29;20049;-82
2024/02/10 05:51:55;;;;;;;;;;;;;;;;;;4826864;29;20057;-83
2024/02/10 05:54:29;;;;;;;14.73;6.05;;;;;;;;;;4840722;29;19924;-83
2024/02/10 05:56:59;;;;;;;11.65;6.00;;;;;;;;;;4841641;29;20528;-85
2024/02/10 05:59:29;;;;;;;13.25;5.70;;;;;;;;;;4824763;29;20060;-83
2024/02/10 06:02:01;;;;;;;19.38;7.53;;;;;;;;;;4841938;29;20120;-86
2024/02/10 06:04:33;;;;;;;12.70;5.80;;;;;;;;;;4841646;29;20046;-83
2024/02/10 06:07:07;;;;;;;17.70;6.40;;;;;;;;;;4825338;29;20050;-84
2024/02/10 06:09:37;;;;;;;18.20;6.22;;;;;;;;;;4842038;29;20050;-85
2024/02/10 06:12:08;;;;;;;18.15;6.28;;;;;;;;;;4841363;29;20046;-85
2024/02/10 06:14:41;;;;;;;19.23;7.53;;;;;;;;;;4826110;29;20050;-85
2024/02/10 06:17:13;;;;;;;14.00;6.47;;;;;;;;;;4841948;29;20416;-83
2024/02/10 06:19:44;;;;;;;14.50;6.88;;;;;;;;;;4825708;29;20523;-84
2024/02/10 06:22:17;;;;;;;18.20;7.40;;;;;;;;;;4825351;29;20053;-83
2024/02/10 06:24:48;;;;;;;22.75;9.75;;;;;;;;;;4825291;29;20053;-84
2024/02/10 06:27:19;;;;;;;20.40;9.38;;;;;;;;;;4841513;29;20124;-84
2024/02/10 06:29:51;;;;;;;19.10;9.02;;;;;;;;;;4824795;29;20385;-86
2024/02/10 06:32:21;;;;;;;20.77;8.45;;;;;;;;;;4825368;29;20068;-83
2024/02/10 06:34:52;;;;;;;22.58;8.35;;;;;;;;;;4841225;29;20057;-83
2024/02/10 06:37:24;;;;;;;17.40;8.77;;;;;;;;;;4825447;29;20061;-84
2024/02/10 06:39:55;;;;;;;19.17;8.27;;;;;;;;;;4825483;29;20116;-83
2024/02/10 06:42:34;;;;;;;17.85;8.82;;;;;;;;;;4824857;29;20057;-81
2024/02/10 06:45:08;;;;;;;15.85;8.65;;;;;;;;;;4842238;29;20050;-84
2024/02/10 06:47:40;;;;;;;20.20;9.23;;;;;;;;;;4845419;29;20054;-84
2024/02/10 06:50:13;;;;;;;19.50;8.30;;;;;;;;;;4845276;29;20062;-86
2024/02/10 06:52:45;;;;;;;23.05;9.27;;;;;;;;;;4844905;29;20049;-83
2024/02/10 06:55:15;;;;;;;;;;;;;;;;;;4827880;29;20050;-84
2024/02/10 06:57:48;;;;;;;13.63;6.63;;;;;;;;;;4827983;29;19925;-84
2024/02/10 07:00:18;;;;;;;15.05;7.20;;;;;;;;;;4828742;29;20050;-83
2024/02/10 07:02:49;;;;;;;17.83;7.63;;;;;;;;;;4828141;29;20050;-83
2024/02/10 07:05:23;;;;;;;14.43;6.30;;;;;;;;;;4844609;29;20062;-85
2024/02/10 07:07:53;;;;;;;15.05;6.65;;;;;;;;;;4844937;29;20061;-85
2024/02/10 07:10:24;;;;;;;20.20;7.97;;;;;;;;;;4844258;29;20515;-84
2024/02/10 07:12:56;;;;;;;16.50;7.80;;;;;;;;;;4844722;29;20041;-84
2024/02/10 07:15:30;;;;;;;12.50;6.72;;;;;;;;;;4844735;29;20072;-84
2024/02/10 07:18:02;;;;;;;16.55;7.85;;;;;;;;;;4844471;29;20042;-83
2024/02/10 07:20:34;;;;;;;14.95;7.50;;;;;;;;;;4844583;29;20046;-84
2024/02/10 07:23:04;;;;;;;15.23;6.20;;;;;;;;;;4844431;29;20069;-83
2024/02/10 07:25:37;;;;;;;19.25;6.75;;;;;;;;;;4844624;29;20089;-84
2024/02/10 07:28:11;;;;;;;14.18;6.97;;;;;;;;;;4844273;29;20042;-84
2024/02/10 07:30:51;;;;;;;12.73;6.07;;;;;;;;;;4827146;29;20069;-85
2024/02/10 07:33:22;;;;;;;15.02;6.68;;;;;;;;;;4843874;29;20046;-85
2024/02/10 07:35:53;;;;;;;17.63;7.15;;;;;;;;;;4844184;29;20049;-84
2024/02/10 07:38:23;;;;;;;14.90;6.82;;;;;;;;;;4844243;29;20054;-84
2024/02/10 07:40:54;;;;;;;15.75;6.80;;;;;;;;;;4827524;29;20066;-86
2024/02/10 07:43:27;;;;;;;17.65;5.90;;;;;;;;;;4843935;29;20500;-84
2024/02/10 07:45:57;;;;;;;18.85;7.13;;;;;;;;;;4843984;29;20053;-83
2024/02/10 07:48:28;;;;;;;17.33;6.97;;;;;;;;;;4843748;29;20050;-86
2024/02/10 07:50:58;;;;;;;13.07;6.20;;;;;;;;;;4843868;29;20061;-83
2024/02/10 07:53:28;;;;;;;16.40;6.88;;;;;;;;;;4843804;29;20049;-84
2024/02/10 07:55:58;;;;;;;13.93;6.25;;;;;;;;;;4843059;29;20061;-83
2024/02/10 07:58:29;;;;;;;14.38;6.10;;;;;;;;;;4826500;29;20065;-84
2024/02/10 08:01:01;;;;;;;13.43;6.25;;;;;;;;;;4827780;29;20504;-84
2024/02/10 08:03:33;;;;;;;14.68;6.60;;;;;;;;;;4827761;29;20054;-84
2024/02/10 08:06:04;;;;;;;11.13;5.82;;;;;;;;;;4827022;29;20054;-85
2024/02/10 08:08:34;;;;;;;12.38;5.93;;;;;;;;;;4843798;29;20050;-86
2024/02/10 08:11:05;;;;;;;13.13;6.07;;;;;;;;;;4826586;29;20053;-85
2024/02/10 08:13:35;;;;;;;12.68;5.90;;;;;;;;;;4826952;29;20623;-84
2024/02/10 08:16:07;;;;;;;12.02;6.25;;;;;;;;;;4843377;29;20050;-84
2024/02/10 08:18:37;;;;;;;;;;;;;;;;;;4827261;29;20053;-84
2024/02/10 08:21:07;;;;;;;15.27;6.45;;;;;;;;;;4857127;29;19931;-84
2024/02/10 08:23:38;;;;;;;10.50;5.93;;;;;;;;;;4826716;29;20190;-85
2024/02/10 08:26:08;;;;;;;19.85;5.75;;;;;;;;;;4843707;29;20042;-84
2024/02/10 08:28:39;;;;;;;11.43;5.82;;;;;;;;;;4827274;29;20061;-85
2024/02/10 08:31:09;;;;;;;9.43;5.35;;;;;;;;;;4826197;29;20053;-84
2024/02/10 08:33:44;;;;;;;7.47;4.68;;;;;;;;;;4826656;29;20050;-85
2024/02/10 08:36:16;;;;;;;9.70;4.63;;;;;;;;;;4843147;29;20046;-84
2024/02/10 08:38:48;;;;;;;11.55;5.22;;;;;;;;;;4856493;29;20054;-84
2024/02/10 08:41:18;;;;;;;10.60;4.95;;;;;;;;;;4843277;29;20412;-86
2024/02/10 08:43:48;;;;;;;9.05;5.75;;;;;;;;;;4842778;29;20050;-84
2024/02/10 08:46:22;;;;;;;11.82;5.53;;;;;;;;;;4856533;29;20497;-85
2024/02/10 08:48:53;;;;;;;10.88;5.43;;;;;;;;;;4842870;29;20057;-86
2024/02/10 08:51:24;;;;;;;12.15;4.82;;;;;;;;;;4825981;29;20057;-84
2024/02/10 08:53:56;;;;;;;12.45;5.72;;;;;;;;;;4826721;29;20053;-84
2024/02/10 08:56:32;;;;;;;;;;;;;;;;;;4827022;29;20046;-86
2024/02/10 08:59:04;;;;;;;10.63;5.28;;;;;;;;;;4857173;29;19936;-85
2024/02/10 09:01:37;;;;;;;13.52;5.57;;;;;;;;;;4856604;29;20052;-84
2024/02/10 09:04:10;;;;;;;10.27;5.15;;;;;;;;;;4842435;29;20386;-84
2024/02/10 09:06:40;;;;;;;14.27;5.40;;;;;;;;;;4811356;29;20050;-85
2024/02/10 09:09:11;;;;;;;11.45;5.13;;;;;;;;;;4825346;29;20061;-83
2024/02/10 09:11:41;;;;;;;12.02;5.30;;;;;;;;;;4826485;29;20424;-84
2024/02/10 09:14:12;;;;;;;12.00;5.18;;;;;;;;;;4842709;29;20481;-85
2024/02/10 09:16:45;;;;;;;9.15;5.25;;;;;;;;;;4842655;29;20049;-85
2024/02/10 09:19:20;;;;;;;14.98;4.95;;;;;;;;;;4826960;29;20079;-84
2024/02/10 09:21:59;;;;;;;11.65;4.90;;;;;;;;;;4842088;29;20054;-84
2024/02/10 09:24:29;;;;;;;10.40;5.32;;;;;;;;;;4826178;29;20061;-84
2024/02/10 09:27:09;;;;;;;12.63;4.53;;;;;;;;;;4842420;29;20381;-86
2024/02/10 09:29:40;;;;;;;7.18;4.38;;;;;;;;;;4826230;29;20050;-84
2024/02/10 09:32:11;;;;;;;10.27;5.15;;;;;;;;;;4841879;29;20503;-84
2024/02/10 09:34:41;;;;;;;9.77;4.13;;;;;;;;;;4842527;29;20056;-84
2024/02/10 09:37:11;;;;;;;10.15;4.93;;;;;;;;;;4855812;29;20504;-86
2024/02/10 09:39:41;;;;;;;11.25;4.10;;;;;;;;;;4842067;29;20054;-84
2024/02/10 09:42:23;;;;;;;11.85;5.00;;;;;;;;;;4810754;29;20058;-86
2024/02/10 09:44:54;;;;;;;8.63;3.45;;;;;;;;;;4839743;29;20058;-84
2024/02/10 09:47:25;;;;;;;7.68;3.72;;;;;;;;;;4825685;29;20412;-84
2024/02/10 09:50:03;;;;;;;13.35;3.70;;;;;;;;;;4825919;29;20050;-85
2024/02/10 09:52:35;;;;;;;6.70;3.70;;;;;;;;;;4825589;29;20076;-86
2024/02/10 09:55:07;;;;;;;7.40;3.40;;;;;;;;;;4840807;29;20046;-86
2024/02/10 09:57:37;;;;;;;;;;;;;;;;;;4841757;29;20053;-86
2024/02/10 10:00:08;;;;;;;7.75;3.55;;;;;;;;;;4840475;29;20398;-85
2024/02/10 10:02:41;;;;;;;5.65;3.42;;;;;;;;;;4839800;29;20064;-84
2024/02/10 10:05:12;;;;;;;9.32;3.58;;;;;;;;;;4841181;29;20049;-84
2024/02/10 10:07:52;;;;;;;7.78;3.47;;;;;;;;;;4840936;29;20054;-85
2024/02/10 10:10:22;;;;;;;5.57;3.13;;;;;;;;;;4841480;29;20042;-87
2024/02/10 10:12:53;;;;;;;9.55;3.67;;;;;;;;;;4855183;29;20050;-85
2024/02/10 10:15:24;;;;;;;6.18;2.95;;;;;;;;;;4843212;29;20077;-85
2024/02/10 10:17:55;;;;;;;8.77;3.10;;;;;;;;;;4820677;29;20539;-84
2024/02/10 10:20:25;;;;;;;8.05;3.17;;;;;;;;;;4843168;29;20112;-83
2024/02/10 10:22:56;;;;;;;6.45;3.83;;;;;;;;;;4829067;29;20057;-84
2024/02/10 10:25:26;;;;;;;6.88;3.08;;;;;;;;;;4845422;29;20061;-84
2024/02/10 10:27:57;;;;;;;8.90;2.45;;;;;;;;;;4845341;29;20053;-84
2024/02/10 10:30:28;;;;;;;5.88;2.72;;;;;;;;;;4828704;29;20057;-84
2024/02/10 10:32:59;;;;;;;7.45;2.63;;;;;;;;;;4843828;29;20061;-84
2024/02/10 10:35:34;;;;;;;5.07;2.63;;;;;;;;;;4845346;29;20423;-85
2024/02/10 10:38:08;;;;;;;5.97;2.70;;;;;;;;;;4845209;29;20058;-82
2024/02/10 10:40:39;;;;;;;6.03;2.20;;;;;;;;;;4837673;29;20038;-84
2024/02/10 10:43:12;;;;;;;5.78;2.40;;;;;;;;;;4857299;29;20085;-84
2024/02/10 10:45:46;;;;;;;6.93;2.30;;;;;;;;;;4828692;29;20050;-83
2024/02/10 10:48:17;;;;;;;5.70;2.50;;;;;;;;;;4828578;29;20050;-83
2024/02/10 10:50:55;;;;;;;4.63;2.28;;;;;;;;;;4844271;29;20054;-83
2024/02/10 10:53:29;;;;;;;5.05;2.42;;;;;;;;;;4827667;29;20424;-85
2024/02/10 10:56:03;;;;;;;8.02;2.35;;;;;;;;;;4828274;29;20041;-83
2024/02/10 10:58:52;;;;;;;5.40;2.28;;;;;;;;;;4858216;29;20505;-82
2024/02/10 11:01:23;;;;;;;7.50;2.40;;;;;;;;;;4828477;29;20412;-83
2024/02/10 11:03:58;;;;;;;7.22;2.72;;;;;;;;;;4844012;29;20408;-83
2024/02/10 11:06:32;;;;;;;6.43;2.40;;;;;;;;;;4827632;29;20061;-84
2024/02/10 11:09:04;;;;;;;5.25;2.60;;;;;;;;;;4844157;29;20405;-84
2024/02/10 11:11:39;;;;;;;4.88;2.60;;;;;;;;;;4843955;29;20125;-83
2024/02/10 11:14:10;;;;;;;4.80;2.63;;;;;;;;;;4843926;29;20069;-83
2024/02/10 11:16:48;;;;;;;6.47;2.42;;;;;;;;;;4827187;29;20050;-83
2024/02/10 11:19:18;;;;;;;7.88;2.45;;;;;;;;;;4845814;29;20045;-86
2024/02/10 11:21:48;;;;;;;6.53;2.67;;;;;;;;;;4846215;29;20057;-84
2024/02/10 11:24:19;;;;;;;7.63;2.53;;;;;;;;;;4845795;29;20068;-85
2024/02/10 11:26:49;;;;;;;4.45;2.15;;;;;;;;;;4845609;29;20416;-86
2024/02/10 11:29:20;;;;;;;5.40;2.20;;;;;;;;;;4862202;29;20073;-85
2024/02/10 11:31:51;;;;;;;5.93;2.15;;;;;;;;;;4845812;29;20053;-85
2024/02/10 11:34:20;;;;;;;5.18;1.98;;;;;;;;;;4860386;29;20058;-86
2024/02/10 11:36:53;;;;;;;6.50;2.45;;;;;;;;;;4862429;29;20069;-83
2024/02/10 11:39:27;;;;;;;4.07;2.03;;;;;;;;;;4862539;29;20107;-83
2024/02/10 11:42:00;;;;;;;5.22;2.38;;;;;;;;;;4863034;29;20049;-83
2024/02/10 11:44:30;;;;;;;4.90;2.33;;;;;;;;;;4862560;29;20049;-83
2024/02/10 11:47:00;;;;;;;3.58;2.47;;;;;;;;;;4862799;29;20049;-85
2024/02/10 11:49:31;;;;;;;5.40;2.50;;;;;;;;;;4864055;29;20054;-85
2024/02/10 11:52:01;;;;;;;7.05;2.15;;;;;;;;;;4837992;29;20505;-83
2024/02/10 11:54:31;;;;;;;4.28;1.98;;;;;;;;;;4844631;29;20176;-84
2024/02/10 11:57:03;;;;;;;5.88;2.53;;;;;;;;;;4845203;29;20058;-86
2024/02/10 11:59:34;;;;;;;;;;;;;;;;;;4845333;29;20113;-83
2024/02/10 12:02:15;;;;;;;4.15;2.70;;;;;;;;;;4845382;29;19936;-83
2024/02/10 12:04:50;;;;;;;3.85;2.10;;;;;;;;;;4844659;29;20046;-84
2024/02/10 12:07:21;;;;;;;5.05;2.22;;;;;;;;;;4845370;29;20053;-84
2024/02/10 12:09:51;;;;;;;4.93;2.40;;;;;;;;;;4843718;29;20424;-83
2024/02/10 12:12:22;;;;;;;4.00;2.38;;;;;;;;;;4841957;29;20049;-87
2024/02/10 12:14:53;;;;;;;6.53;2.45;;;;;;;;;;4843286;29;20049;-84
2024/02/10 12:17:30;;;;;;;5.85;2.28;;;;;;;;;;4827297;29;20050;-81
2024/02/10 12:20:01;;;;;;;7.57;2.17;;;;;;;;;;4826620;29;20513;-83
2024/02/10 12:22:33;;;;;;;4.95;2.22;;;;;;;;;;4826348;29;20054;-84
2024/02/10 12:25:04;;;;;;;6.00;2.38;;;;;;;;;;4826392;29;20061;-84
2024/02/10 12:27:36;;;;;;;5.93;2.13;;;;;;;;;;4842412;29;20046;-83
2024/02/10 12:30:07;;;;;;;3.50;2.33;;;;;;;;;;4842908;29;20058;-84
2024/02/10 12:32:37;;;;;;;6.50;2.47;;;;;;;;;;4841878;29;20053;-85
2024/02/10 12:35:16;;;;;;;6.13;2.60;;;;;;;;;;4842961;29;20081;-83
2024/02/10 12:37:47;;;;;;;5.43;2.35;;;;;;;;;;4841186;29;20085;-85
2024/02/10 12:40:20;;;;;;;3.75;2.30;;;;;;;;;;4842674;29;20523;-87
2024/02/10 12:42:53;;;;;;;4.45;2.40;;;;;;;;;;4841991;29;20046;-84
2024/02/10 12:45:24;;;;;;;5.43;2.45;;;;;;;;;;4842687;29;20057;-85
2024/02/10 12:47:54;;;;;;;3.63;2.33;;;;;;;;;;4841133;29;20054;-84
2024/02/10 12:50:24;;;;;;;8.63;2.55;;;;;;;;;;4841035;29;20050;-83
2024/02/10 12:52:55;;;;;;;4.38;2.35;;;;;;;;;;4842612;29;20053;-83
2024/02/10 12:55:25;;;;;;;6.65;2.22;;;;;;;;;;4842392;29;20409;-86
2024/02/10 12:57:56;;;;;;;3.55;2.33;;;;;;;;;;4842429;29;20063;-87
2024/02/10 13:00:27;;;;;;;4.68;2.22;;;;;;;;;;4840674;29;20363;-87
2024/02/10 13:02:57;;;;;;;8.90;2.45;;;;;;;;;;4842408;29;20061;-85
2024/02/10 13:05:28;;;;;;;4.57;2.55;;;;;;;;;;4842350;29;20065;-85
2024/02/10 13:07:59;;;;;;;4.07;2.58;;;;;;;;;;4825069;29;20057;-84
2024/02/10 13:10:29;;;;;;;5.65;2.50;;;;;;;;;;4822754;29;20467;-88
2024/02/10 13:13:02;;;;;;;7.25;2.33;;;;;;;;;;4837149;29;20058;-87
2024/02/10 13:15:38;;;;;;;10.48;2.80;;;;;;;;;;4822673;29;20073;-86
2024/02/10 13:18:10;;;;;;;3.25;2.05;;;;;;;;;;4838442;29;20050;-89
2024/02/10 13:20:41;;;;;;;4.35;2.28;;;;;;;;;;4831472;29;20042;-85
2024/02/10 13:23:11;;;;;;;5.43;2.50;;;;;;;;;;4825870;29;20050;-86
2024/02/10 13:25:42;;;;;;;2.95;2.13;;;;;;;;;;4825472;29;20053;-87
2024/02/10 13:28:14;;;;;;;5.35;2.28;;;;;;;;;;4841475;29;20061;-86
2024/02/10 13:30:45;;;;;;;5.13;2.22;;;;;;;;;;4841504;29;20416;-86
2024/02/10 13:33:15;;;;;;;6.50;2.42;;;;;;;;;;4841972;29;20056;-87
2024/02/10 13:35:48;;;;;;;2.92;2.03;;;;;;;;;;4854115;29;20065;-89
2024/02/10 14:13:10;;;;;;;4.03;1.95;;;;;;;;;;4816996;29;20129;-87
2024/02/10 14:15:40;;;;;;;6.82;2.47;;;;;;;;;;4840666;29;20383;-85
2024/02/10 14:18:15;;;;;;;3.15;2.05;;;;;;;;;;4825916;29;20068;-85
2024/02/10 14:20:46;;;;;;;4.57;2.40;;;;;;;;;;4825328;29;20054;-87
2024/02/10 14:23:24;;;;;;;4.57;1.90;;;;;;;;;;4842428;29;20049;-88
2024/02/10 14:25:56;;;;;;;4.13;1.88;;;;;;;;;;4825066;29;20531;-89
2024/02/10 14:28:49;;;;;;;5.63;2.47;;;;;;;;;;4841731;29;20068;-88
2024/02/10 14:32:10;;;;;;;5.68;1.88;;;;;;;;;;4841907;29;20433;-87
2024/02/10 14:37:46;;;;;;;4.50;2.50;;;;;;;;;;4837373;29;20421;-87
2024/02/10 14:40:19;;;;;;;5.95;2.10;;;;;;;;;;4838971;29;20048;-88
2024/02/10 14:42:49;;;;;;;6.70;2.45;;;;;;;;;;4841433;29;20038;-85
2024/02/10 14:45:21;;;;;;;3.58;1.98;;;;;;;;;;4840395;29;20064;-86
2024/02/10 14:47:54;;;;;;;6.70;2.67;;;;;;;;;;4840120;29;20058;-88
2024/02/10 14:50:25;;;;;;;5.88;2.30;;;;;;;;;;4841567;29;20062;-85
2024/02/10 14:52:55;;;;;;;4.53;2.58;;;;;;;;;;4841307;29;20054;-87
2024/02/10 14:55:28;;;;;;;3.45;1.92;;;;;;;;;;4841139;29;20054;-85
2024/02/10 14:57:58;;;;;;;2.85;1.90;;;;;;;;;;4841073;29;20046;-89
2024/02/10 15:00:30;;;;;;;4.32;2.28;;;;;;;;;;4839947;29;20041;-87
2024/02/10 15:03:02;;;;;;;5.55;2.00;;;;;;;;;;4841743;29;20042;-87
2024/02/10 15:05:33;;;;;;;3.47;1.88;;;;;;;;;;4839650;29;20061;-87
2024/02/10 15:08:03;;;;;;;4.72;2.00;;;;;;;;;;4841904;29;20065;-87
2024/02/10 15:10:34;;;;;;;3.25;2.05;;;;;;;;;;4860086;29;20062;-90
2024/02/10 15:13:04;;;;;;;5.00;1.90;;;;;;;;;;4847137;29;20054;-85
2024/02/10 15:15:47;;;;;;;3.60;2.10;;;;;;;;;;4850862;29;20054;-87
2024/02/10 15:18:18;;;;;;;5.03;2.05;;;;;;;;;;4815391;29;20056;-87
2024/02/10 15:20:50;;;;;;;3.83;1.63;;;;;;;;;;4846485;29;20046;-87
2024/02/10 15:23:25;;;;;;;6.28;1.90;;;;;;;;;;4829672;29;20076;-88
2024/02/10 15:25:56;;;;;;;3.20;1.92;;;;;;;;;;4845137;29;20050;-87
2024/02/10 15:28:26;;;;;;;16.88;2.58;;;;;;;;;;4844748;29;20511;-86
2024/02/10 15:30:59;;;;;;;3.58;1.77;;;;;;;;;;4844728;29;20050;-87
2024/02/10 15:33:29;;;;;;;4.30;1.70;;;;;;;;;;4828266;29;20401;-87
2024/02/10 15:36:01;;;;;;;4.07;1.90;;;;;;;;;;4827415;29;20053;-87
2024/02/10 15:38:33;;;;;;;3.47;1.55;;;;;;;;;;4844377;29;20049;-86
2024/02/10 15:41:03;;;;;;;3.35;1.52;;;;;;;;;;4842127;29;20050;-86
2024/02/10 15:43:33;;;;;;;6.47;1.58;;;;;;;;;;4843935;29;20049;-88